cubair logo

Welcome To CubAir Flight!

Cub Air Flight was founded in 2006, by Steve and Sharon Krog. Cub Air Flight school uses vintage Piper J3 Cub aircraft to instruct in, following a philosophy that “old school is still cool.” Cub Air Flight believes that these fine classic airplanes make better pilots by requiring more attention and flying skill than newer airplanes. We at Cub Air Flight hold that flying a vintage airplane is as much an art as it is a science.

The Piper J3 Cub is revered among aviators as a truly classic and iconic airplane. It has served as a trainer to more pilots than almost any airplane, earning a reputation as easy to fly but yet challenging enough to force students to continually better themselves. Cub Air uses two J3 Cubs, restored and maintained with the same attention to detail as a lovingly restored classic car. Cub Air also uses a Piper Cherokee for training requiring an aircraft with more advanced instruments.

Find Us Here!

Hartford Municipal

Airport (KHXF)
4200 Highway U
Hartford, WI 53027

Our Staff

Steve Krog
Jamie Weber

West Bend Weather

[Source: ADDS]
METAR
KETB 231655Z AUTO 32013G17KT 10SM OVC017 M03/M05 A2980 RMK AO2 =
TAF

Waukesha Weather

[Source: ADDS]
METAR
KUES 231645Z 30012G17KT 10SM OVC019 M04/M06 A2982 =
TAF
KUES 231624Z 2316/2412 32013G19KT P6SM OVC015 FM232200 32010KT P6SM OVC025 FM240200 31007KT P6SM BKN035 =

Juneau Weather

[Source: ADDS]
METAR
KUNU 231655Z AUTO 31010G17KT 10SM OVC017 M03/M06 A2984 RMK AO2 T10351061 =
TAF

Fond Du Lac Weather

[Source: ADDS]
METAR
KFLD 231653Z AUTO 32015G19KT 10SM UP OVC021 M02/M07 A2982 RMK AO2 UPB53 SLP108 P0000 T10221067 TSNO =
TAF